Time;durP1;ratioP1;P1;durP2;ratioP2;P2;SDS_P1;SDS_P2;PMS_P1;PMS_P2;Temp;Humidity;BMP_temperature;BMP_pressure;BME280_temperature;BME280_humidity;BME280_pressure;Samples;Min_cycle;Max_cycle;Signal;HPM_P1;HPM_P2
2022/02/04 08:59:27;;;;;;;15.07;3.72;;;9.20;95.40;;;;;;5106472;28;20040;-62
2022/02/04 09:02:01;;;;;;;19.35;3.45;;;9.20;95.40;;;;;;5109885;28;20050;-59
2022/02/04 09:04:33;;;;;;;17.38;2.95;;;9.10;95.60;;;;;;5105485;28;20138;-56
2022/02/04 09:07:05;;;;;;;12.77;2.70;;;9.10;95.80;;;;;;5109635;28;20486;-57
2022/02/04 09:09:49;;;;;;;9.48;1.45;;;8.90;93.90;;;;;;5109679;28;20042;-56
2022/02/04 09:20:36;;;;;;;3.85;1.00;;;6.60;95.70;;;;;;5108809;28;20106;-59
2022/02/04 09:23:02;;;;;;;2.97;1.17;;;6.40;96.00;;;;;;5108831;28;20043;-60
2022/02/04 09:25:29;;;;;;;10.15;4.38;;;6.30;95.90;;;;;;5108173;28;20044;-61
2022/02/04 09:27:56;;;;;;;4.13;1.80;;;6.20;96.00;;;;;;5105961;28;20544;-57
2022/02/04 09:30:22;;;;;;;7.35;2.92;;;6.20;96.30;;;;;;5107270;28;20071;-55
2022/02/04 09:32:49;;;;;;;2.42;1.15;;;6.10;95.90;;;;;;5090921;28;20051;-60
2022/02/04 09:35:16;;;;;;;3.45;1.45;;;5.90;95.70;;;;;;5109506;28;20040;-56
2022/02/04 09:37:43;;;;;;;2.40;1.13;;;5.70;96.40;;;;;;5108019;28;20341;-58
2022/02/04 09:40:10;;;;;;;2.95;1.10;;;5.60;96.30;;;;;;5110133;28;20390;-57
2022/02/04 09:42:38;;;;;;;4.68;1.20;;;5.50;95.80;;;;;;5106446;28;20463;-57
2022/02/04 09:45:04;;;;;;;4.18;1.85;;;5.40;96.30;;;;;;5094938;28;20441;-57
2022/02/04 09:47:35;;;;;;;4.97;0.90;;;5.30;96.70;;;;;;5096000;28;20376;-59
2022/02/04 09:50:09;;;;;;;;;;;5.10;96.10;;;;;;5096132;28;20055;-56
2022/02/04 10:07:04;;;;;;;6.68;2.47;;;4.40;96.80;;;;;;5094456;28;20050;-59
2022/02/04 10:10:12;;;;;;;5.65;1.42;;;4.50;96.80;;;;;;5095733;28;20122;-57
2022/02/04 10:17:40;;;;;;;4.07;1.52;;;4.20;97.10;;;;;;5094999;28;20101;-59
2022/02/04 10:20:13;;;;;;;7.25;1.52;;;4.20;96.50;;;;;;5095087;28;20044;-61
2022/02/04 10:22:40;;;;;;;1.85;0.90;;;4.30;96.90;;;;;;5094872;28;20051;-57
2022/02/04 10:25:08;;;;;;;3.63;1.10;;;4.10;96.20;;;;;;5094870;28;20055;-62
2022/02/04 10:27:55;;;;;;;2.00;1.00;;;4.10;96.70;;;;;;5094905;28;20040;-57
2022/02/04 10:30:22;;;;;;;1.92;0.90;;;4.30;96.80;;;;;;5094587;28;20040;-52
2022/02/04 10:32:49;;;;;;;2.33;1.15;;;4.40;96.00;;;;;;5094548;28;20054;-58
2022/02/04 10:35:16;;;;;;;1.95;1.08;;;4.40;96.40;;;;;;5094726;28;20036;-56
2022/02/04 10:37:43;;;;;;;2.08;0.90;;;4.30;96.50;;;;;;5087918;28;20479;-54
2022/02/04 10:40:17;;;;;;;2.15;0.70;;;4.20;96.20;;;;;;5088093;28;20093;-50
2022/02/04 10:59:01;;;;;;;2.20;1.10;;;4.20;96.90;;;;;;5094141;28;20403;-55
2022/02/04 11:01:57;;;;;;;3.30;0.98;;;4.40;96.80;;;;;;5092767;28;20058;-60
2022/02/04 11:09:35;;;;;;;8.82;1.45;;;4.40;96.70;;;;;;5093836;28;20047;-55
2022/02/04 11:32:13;;;;;;;3.80;1.45;;;4.50;96.40;;;;;;5055625;28;20053;-57
2022/02/04 11:34:27;;;;;;;3.38;1.20;;;4.60;95.50;;;;;;5093181;28;20036;-60
2022/02/04 11:43:42;;;;;;;3.50;1.52;;;4.60;96.20;;;;;;5093281;28;20039;-54
2022/02/04 11:48:31;;;;;;;3.55;1.40;;;4.60;94.10;;;;;;5093083;28;20040;-58
2022/02/04 11:54:29;;;;;;;3.40;1.23;;;4.60;95.10;;;;;;5087615;28;20103;-59
2022/02/04 11:56:41;;;;;;;4.20;1.75;;;4.70;94.60;;;;;;5090259;28;20380;-56
2022/02/04 11:59:07;;;;;;;4.57;1.85;;;4.70;94.90;;;;;;5075128;28;20036;-56
2022/02/04 12:01:54;;;;;;;3.47;1.80;;;4.70;94.80;;;;;;5092501;28;20380;-60
2022/02/04 12:04:21;;;;;;;7.13;2.20;;;4.70;95.00;;;;;;5093631;28;20063;-59
2022/02/04 12:06:48;;;;;;;3.22;1.95;;;4.70;95.00;;;;;;5092922;28;20032;-55
2022/02/04 12:09:14;;;;;;;3.60;2.08;;;4.80;95.20;;;;;;5093067;28;20036;-56
2022/02/04 12:11:41;;;;;;;4.07;2.00;;;4.90;95.60;;;;;;5092478;28;20032;-54
2022/02/04 12:14:10;;;;;;;5.75;2.60;;;4.90;94.70;;;;;;5090853;28;20064;-54
2022/02/04 12:16:37;;;;;;;5.28;2.35;;;5.00;95.20;;;;;;5090819;28;20127;-55
2022/02/04 12:19:04;;;;;;;3.33;2.20;;;5.00;94.60;;;;;;5090834;28;20051;-56
2022/02/04 12:21:30;;;;;;;3.55;2.20;;;5.00;94.40;;;;;;5091524;28;20399;-56
2022/02/04 12:24:00;;;;;;;5.32;2.25;;;5.10;94.40;;;;;;5086042;28;20040;-54
2022/02/04 12:26:27;;;;;;;3.40;2.20;;;5.10;93.30;;;;;;5093007;28;20064;-57
2022/02/04 12:29:03;;;;;;;3.17;2.25;;;5.10;93.90;;;;;;5092784;28;20047;-59
2022/02/04 12:31:30;;;;;;;;;;;5.10;93.80;;;;;;5091570;28;20051;-59
2022/02/04 12:33:57;;;;;;;3.65;1.77;;;5.20;93.70;;;;;;5091755;28;19920;-55
2022/02/04 12:36:24;;;;;;;4.55;2.03;;;5.20;93.50;;;;;;5092731;28;20040;-55
2022/02/04 12:38:51;;;;;;;3.58;1.80;;;5.20;93.10;;;;;;5092715;28;20040;-57
2022/02/04 12:41:18;;;;;;;4.22;1.90;;;5.30;94.00;;;;;;5091705;28;20051;-57
2022/02/04 12:43:45;;;;;;;4.85;2.13;;;5.40;93.60;;;;;;5092583;28;20048;-57
2022/02/04 12:46:13;;;;;;;4.10;2.15;;;5.40;93.50;;;;;;5092787;28;20093;-58
2022/02/04 12:48:40;;;;;;;3.97;1.85;;;5.40;93.10;;;;;;5092620;28;20076;-58
2022/02/04 12:51:08;;;;;;;6.35;1.70;;;5.50;93.90;;;;;;5091388;28;20048;-58
2022/02/04 12:53:35;;;;;;;5.90;1.60;;;5.60;93.50;;;;;;5092624;28;20105;-58
2022/02/04 12:56:33;;;;;;;4.55;1.60;;;5.60;93.20;;;;;;5091811;28;20050;-58
2022/02/04 13:02:02;;;;;;;4.88;1.60;;;5.80;91.90;;;;;;5092125;28;20051;-57
2022/02/04 13:10:11;;;;;;;4.95;1.27;;;5.80;91.70;;;;;;5092754;28;20447;-56
2022/02/04 13:12:38;;;;;;;8.02;1.27;;;5.90;91.00;;;;;;5092600;28;20082;-54
2022/02/04 13:15:04;;;;;;;5.95;1.08;;;5.90;90.20;;;;;;5092221;28;20044;-58
2022/02/04 13:17:31;;;;;;;8.55;1.42;;;5.90;89.70;;;;;;5085621;28;20040;-54
2022/02/04 13:19:58;;;;;;;5.35;1.30;;;5.90;89.50;;;;;;5089445;28;20051;-58
2022/02/04 13:22:25;;;;;;;5.45;2.05;;;5.90;89.10;;;;;;5089387;28;20089;-56
2022/02/04 13:24:52;;;;;;;23.17;11.38;;;6.00;90.00;;;;;;5095870;28;20475;-56
2022/02/04 13:27:21;;;;;;;7.00;3.33;;;6.00;90.40;;;;;;5094515;28;20560;-57
2022/02/04 13:29:48;;;;;;;4.85;2.05;;;6.00;90.90;;;;;;5089316;28;20047;-55
2022/02/04 13:32:15;;;;;;;4.43;1.50;;;6.10;90.80;;;;;;5089088;28;20467;-56
2022/02/04 13:34:41;;;;;;;5.35;1.38;;;6.10;89.30;;;;;;5094734;28;20498;-54
2022/02/04 13:37:13;;;;;;;7.57;3.08;;;6.20;89.00;;;;;;5095653;28;20545;-54
2022/02/04 13:39:56;;;;;;;6.00;1.40;;;6.20;90.00;;;;;;5096001;28;20495;-55
2022/02/04 13:42:29;;;;;;;5.78;1.60;;;6.30;90.20;;;;;;5091840;28;20066;-58
2022/02/04 13:45:04;;;;;;;6.65;2.40;;;6.30;90.20;;;;;;5095582;28;20451;-55
2022/02/04 13:56:10;;;;;;;5.07;1.40;;;6.50;88.70;;;;;;5095800;28;20036;-57
2022/02/04 13:58:06;;;;;;;2.63;0.88;;;6.60;87.80;;;;;;5087969;28;20403;-58
2022/02/04 14:00:48;;;;;;;6.22;1.20;;;6.60;85.70;;;;;;5095488;28;20032;-53
2022/02/04 14:03:17;;;;;;;5.85;1.30;;;6.70;86.00;;;;;;5090556;28;20396;-53
2022/02/04 14:05:51;;;;;;;3.25;0.95;;;6.80;84.60;;;;;;5094664;28;20055;-57
2022/02/04 14:08:21;;;;;;;4.75;1.40;;;6.90;86.40;;;;;;5088453;28;20047;-55
2022/02/04 14:10:48;;;;;;;5.20;1.40;;;7.00;85.40;;;;;;5095076;28;20036;-53
2022/02/04 14:13:15;;;;;;;7.75;1.08;;;7.10;82.50;;;;;;5094978;28;20036;-59
2022/02/04 14:15:45;;;;;;;9.65;2.30;;;7.10;82.20;;;;;;5093555;28;20043;-58
2022/02/04 14:18:12;;;;;;;7.53;1.20;;;7.10;81.00;;;;;;5094967;28;20375;-54
2022/02/04 14:20:40;;;;;;;11.68;2.08;;;7.00;81.30;;;;;;5094307;28;20463;-57
2022/02/04 14:23:07;;;;;;;4.18;0.88;;;7.00;81.10;;;;;;5094786;28;20048;-55
2022/02/04 14:25:34;;;;;;;4.60;1.20;;;7.00;80.20;;;;;;5094056;28;20093;-58
2022/02/04 14:28:05;;;;;;;7.72;1.45;;;7.00;81.00;;;;;;5094475;28;20050;-57
2022/02/04 14:30:36;;;;;;;6.38;1.13;;;7.00;80.20;;;;;;5093528;28;20052;-57
2022/02/04 14:33:11;;;;;;;6.97;1.55;;;7.00;79.60;;;;;;5089676;28;20052;-52
2022/02/04 14:35:53;;;;;;;4.78;1.13;;;7.00;79.90;;;;;;5094574;28;20052;-55
2022/02/04 14:50:07;;;;;;;5.25;1.40;;;7.00;76.80;;;;;;5094468;28;20036;-53
2022/02/04 15:03:15;;;;;;;7.55;1.20;;;7.30;76.90;;;;;;5088041;28;20058;-52
2022/02/04 15:05:46;;;;;;;7.13;1.50;;;7.40;75.80;;;;;;5082413;28;20039;-56
2022/02/04 15:08:19;;;;;;;8.43;1.65;;;7.40;75.50;;;;;;5092733;28;20040;-55
2022/02/04 15:10:48;;;;;;;5.32;1.63;;;7.40;75.30;;;;;;5093802;28;20036;-54
2022/02/04 15:13:17;;;;;;;5.57;1.40;;;7.30;75.60;;;;;;5092667;28;20036;-59
2022/02/04 15:15:44;;;;;;;8.25;1.65;;;7.30;74.10;;;;;;5086415;28;20114;-52
2022/02/04 15:18:10;;;;;;;6.90;1.60;;;7.20;76.90;;;;;;5093434;28;20040;-53
2022/02/04 15:20:37;;;;;;;6.82;1.40;;;7.20;74.20;;;;;;5093320;28;20054;-58
2022/02/04 15:23:04;;;;;;;8.77;1.55;;;7.10;75.20;;;;;;5093855;28;20068;-54
2022/02/04 15:25:31;;;;;;;6.90;1.45;;;7.10;75.70;;;;;;5093377;28;20051;-53
2022/02/04 15:28:34;;;;;;;7.85;1.80;;;7.10;76.30;;;;;;5093529;28;20040;-53
2022/02/04 15:31:02;;;;;;;8.93;1.70;;;7.20;75.40;;;;;;5093748;28;20044;-51
2022/02/04 15:33:33;;;;;;;7.53;1.50;;;7.20;75.40;;;;;;5092645;28;20395;-57
2022/02/04 15:36:00;;;;;;;6.53;1.70;;;7.30;74.70;;;;;;5093470;28;20047;-55
2022/02/04 15:38:27;;;;;;;6.88;1.80;;;7.30;74.30;;;;;;5093125;28;20040;-55
2022/02/04 15:40:54;;;;;;;8.63;1.38;;;7.30;73.60;;;;;;5092652;28;20036;-56
2022/02/04 15:43:21;;;;;;;9.75;1.65;;;7.30;72.90;;;;;;5093327;28;20364;-54
2022/02/04 15:48:36;;;;;;;4.63;1.33;;;7.40;73.40;;;;;;5071743;28;20059;-56
2022/02/04 15:51:37;;;;;;;7.28;1.42;;;7.40;73.50;;;;;;5089332;28;20062;-54
2022/02/04 15:54:16;;;;;;;9.13;1.75;;;7.40;72.80;;;;;;5092670;28;20036;-54
2022/02/04 16:04:28;;;;;;;9.43;1.83;;;7.10;73.70;;;;;;5090768;28;20097;-54
2022/02/04 16:06:55;;;;;;;10.07;2.05;;;7.10;74.20;;;;;;5092591;28;20044;-57
2022/02/04 16:09:23;;;;;;;4.68;1.42;;;7.10;74.20;;;;;;5090959;28;20044;-55
2022/02/04 16:12:03;;;;;;;16.60;2.22;;;7.10;74.70;;;;;;5093160;28;20446;-58
2022/02/04 16:19:29;;;;;;;7.82;2.05;;;7.00;75.40;;;;;;5092854;28;20043;-59
2022/02/04 16:30:11;;;;;;;8.07;1.80;;;6.90;75.50;;;;;;5069486;28;20079;-58
2022/02/04 16:32:38;;;;;;;6.43;1.40;;;6.90;75.50;;;;;;5090246;28;20055;-57
2022/02/04 16:35:05;;;;;;;7.18;2.00;;;6.90;75.90;;;;;;5091861;28;20485;-58
2022/02/04 16:37:35;;;;;;;6.43;1.45;;;6.90;75.40;;;;;;5092775;28;20047;-59
2022/02/04 16:40:03;;;;;;;7.70;1.85;;;6.90;74.90;;;;;;5092882;28;20548;-55
2022/02/04 16:42:31;;;;;;;7.93;1.60;;;6.90;75.20;;;;;;5092784;28;20043;-53
2022/02/04 16:44:57;;;;;;;6.20;1.30;;;6.90;75.40;;;;;;5091790;28;20491;-60
2022/02/04 16:47:24;;;;;;;10.88;1.48;;;6.90;75.20;;;;;;5090941;28;20445;-58
2022/02/04 16:49:51;;;;;;;4.63;1.45;;;6.80;75.00;;;;;;5092958;28;20067;-58
2022/02/04 16:52:18;;;;;;;10.15;1.73;;;6.80;76.00;;;;;;5092548;28;20109;-57
2022/02/04 16:54:44;;;;;;;7.00;1.52;;;6.70;76.20;;;;;;5094904;28;20061;-57
2022/02/04 16:57:13;;;;;;;7.18;1.42;;;6.70;77.30;;;;;;5096374;28;20044;-56
2022/02/04 16:59:40;;;;;;;6.47;1.42;;;6.70;77.50;;;;;;5096590;28;20048;-53
2022/02/04 17:02:07;;;;;;;6.78;1.50;;;6.60;78.00;;;;;;5096273;28;20044;-60
2022/02/04 17:04:34;;;;;;;6.32;1.50;;;6.60;77.00;;;;;;5096448;28;20449;-56
2022/02/04 17:07:05;;;;;;;8.65;1.77;;;6.60;77.50;;;;;;5096185;28;20097;-55
2022/02/04 17:09:39;;;;;;;5.18;1.48;;;6.60;77.60;;;;;;5096222;28;20044;-56
2022/02/04 17:12:09;;;;;;;7.85;2.50;;;6.60;76.60;;;;;;5096186;28;20052;-54
2022/02/04 17:14:35;;;;;;;5.10;1.20;;;6.50;77.50;;;;;;5095943;28;20028;-52
2022/02/04 17:17:02;;;;;;;6.35;1.27;;;6.50;77.10;;;;;;5095879;28;20043;-58
2022/02/04 17:19:35;;;;;;;7.43;1.30;;;6.40;76.40;;;;;;5096125;28;20039;-55
2022/02/04 17:22:04;;;;;;;7.85;1.30;;;6.40;74.90;;;;;;5096132;28;20059;-58
2022/02/04 17:24:31;;;;;;;5.63;1.38;;;6.40;74.30;;;;;;5095854;28;20105;-58
2022/02/04 17:26:58;;;;;;;5.63;1.80;;;6.50;73.30;;;;;;5095877;28;20044;-52
2022/02/04 17:29:28;;;;;;;7.97;1.25;;;6.40;72.90;;;;;;5095969;28;20048;-55
2022/02/04 17:31:54;;;;;;;5.95;1.40;;;6.40;72.60;;;;;;5095985;28;20454;-56
2022/02/04 17:34:21;;;;;;;7.25;1.52;;;6.40;73.10;;;;;;5095237;28;20090;-54
2022/02/04 17:36:48;;;;;;;6.43;1.90;;;6.30;73.70;;;;;;5095887;28;20036;-53
2022/02/04 17:39:18;;;;;;;7.53;1.77;;;6.30;73.20;;;;;;5095923;28;20059;-54
2022/02/04 17:41:45;;;;;;;8.20;2.97;;;6.30;73.00;;;;;;5094640;28;20048;-57
2022/02/04 17:44:12;;;;;;;7.57;2.55;;;6.30;73.20;;;;;;5096159;28;20089;-54
2022/02/04 17:46:39;;;;;;;6.43;1.80;;;6.30;75.00;;;;;;5094831;28;20048;-53
2022/02/04 17:49:36;;;;;;;3.25;1.30;;;6.20;74.60;;;;;;5096571;28;20101;-52
2022/02/04 17:52:17;;;;;;;8.82;1.65;;;6.10;75.00;;;;;;5093962;28;20040;-58
2022/02/04 17:55:04;;;;;;;7.22;2.75;;;6.10;75.80;;;;;;5095934;28;20078;-52
2022/02/04 17:57:44;;;;;;;5.60;1.30;;;6.10;76.00;;;;;;5096412;28;20097;-51
2022/02/04 18:05:56;;;;;;;6.18;1.58;;;6.10;75.60;;;;;;5093277;28;20407;-57
2022/02/04 18:08:23;;;;;;;6.32;1.52;;;6.00;75.50;;;;;;5095973;28;20040;-54
2022/02/04 18:10:50;;;;;;;5.15;1.38;;;6.00;75.10;;;;;;5095712;28;20036;-56
2022/02/04 18:13:17;;;;;;;11.48;1.77;;;6.00;74.10;;;;;;5088128;28;20040;-55
2022/02/04 18:15:43;;;;;;;6.20;1.70;;;6.00;74.00;;;;;;5095545;28;20037;-56
2022/02/04 18:18:11;;;;;;;6.05;1.50;;;6.00;73.90;;;;;;5095113;28;20078;-54
2022/02/04 18:20:41;;;;;;;8.13;1.80;;;6.00;73.60;;;;;;5096632;28;20051;-56
2022/02/04 18:23:09;;;;;;;4.32;2.00;;;5.90;73.30;;;;;;5089244;28;20089;-56
2022/02/04 18:25:36;;;;;;;7.57;1.95;;;5.90;72.90;;;;;;5095183;28;20105;-57
2022/02/04 18:28:03;;;;;;;8.10;1.85;;;5.90;73.90;;;;;;5095038;28;20040;-50
2022/02/04 18:30:34;;;;;;;7.18;2.10;;;5.80;74.30;;;;;;5094007;28;20089;-51
2022/02/04 18:33:01;;;;;;;6.97;1.95;;;5.80;74.00;;;;;;5094253;28;20066;-56
2022/02/04 18:35:27;;;;;;;7.63;2.20;;;5.80;74.50;;;;;;5088327;28;20040;-53
2022/02/04 18:38:11;;;;;;;7.18;1.88;;;5.80;75.10;;;;;;5088058;28;20082;-56
2022/02/04 18:41:21;;;;;;;5.03;1.70;;;5.70;75.50;;;;;;5095006;28;20051;-53
2022/02/04 18:43:54;;;;;;;5.13;1.90;;;5.70;75.20;;;;;;5094727;28;20101;-54
2022/02/04 18:49:10;;;;;;;7.55;1.80;;;5.60;75.30;;;;;;5094694;28;20070;-55
2022/02/04 18:57:16;;;;;;;4.78;1.60;;;5.70;74.70;;;;;;5094428;28;20032;-50
2022/02/04 19:00:09;;;;;;;4.45;1.33;;;5.70;75.30;;;;;;5094746;28;20483;-54
2022/02/04 19:02:35;;;;;;;6.88;1.70;;;5.60;74.70;;;;;;5094673;28;20167;-52
2022/02/04 19:05:07;;;;;;;9.27;2.83;;;5.60;75.20;;;;;;5094428;28;20044;-54
2022/02/04 19:08:01;;;;;;;7.95;2.63;;;5.60;74.70;;;;;;5092932;28;20444;-57
2022/02/04 19:10:21;;;;;;;7.68;1.65;;;5.60;74.60;;;;;;5093559;28;20542;-56
2022/02/04 19:12:53;;;;;;;5.28;1.83;;;5.60;74.60;;;;;;5094707;28;20055;-57
2022/02/04 19:18:07;;;;;;;8.93;2.03;;;5.60;74.60;;;;;;5093971;28;20392;-56
2022/02/04 19:20:45;;;;;;;8.70;1.88;;;5.50;75.00;;;;;;5093207;28;20032;-48
2022/02/04 19:23:20;;;;;;;11.57;2.63;;;5.50;75.00;;;;;;5093953;28;20048;-53
2022/02/04 19:25:48;;;;;;;7.60;2.58;;;5.50;75.40;;;;;;5094068;28;20044;-53
2022/02/04 19:28:14;;;;;;;9.90;2.60;;;5.50;75.30;;;;;;5093074;28;20044;-54
2022/02/04 19:30:47;;;;;;;7.63;3.40;;;5.40;75.40;;;;;;5093904;28;20044;-54
2022/02/04 19:33:16;;;;;;;7.80;2.40;;;5.40;75.70;;;;;;5092662;28;20052;-53
2022/02/04 19:35:43;;;;;;;4.60;1.77;;;5.30;75.70;;;;;;5093646;28;20040;-50
2022/02/04 19:38:10;;;;;;;6.60;2.05;;;5.30;76.60;;;;;;5093757;28;20120;-54
2022/02/04 19:40:42;;;;;;;5.60;2.25;;;5.30;75.90;;;;;;5093080;28;20036;-57
2022/02/04 19:43:09;;;;;;;6.85;2.55;;;5.30;75.80;;;;;;5088367;28;20075;-54
2022/02/04 19:45:45;;;;;;;9.43;2.10;;;5.30;76.40;;;;;;5093337;28;20079;-51
2022/02/04 19:48:22;;;;;;;7.32;1.90;;;5.30;76.40;;;;;;5093114;28;20046;-51
2022/02/04 19:51:05;;;;;;;10.75;1.95;;;5.30;76.20;;;;;;5093495;28;20044;-50
2022/02/04 20:23:38;;;;;;;13.55;2.83;;;5.00;81.30;;;;;;5088585;28;20040;-53
2022/02/04 20:26:05;;;;;;;8.45;2.65;;;5.00;82.00;;;;;;5092991;28;20085;-53
2022/02/04 20:28:32;;;;;;;9.70;2.70;;;4.90;82.50;;;;;;5092513;28;20101;-53
2022/02/04 20:30:59;;;;;;;8.55;2.10;;;4.90;82.80;;;;;;5093192;28;20040;-56
2022/02/04 20:33:25;;;;;;;9.02;2.38;;;4.90;83.10;;;;;;5093056;28;20048;-53
2022/02/04 20:35:52;;;;;;;9.95;2.40;;;4.90;83.50;;;;;;5091940;28;20502;-53
2022/02/04 20:38:20;;;;;;;13.57;2.70;;;5.00;83.80;;;;;;5091782;28;20032;-53
2022/02/04 20:40:54;;;;;;;10.18;2.30;;;5.00;84.10;;;;;;5093106;28;20550;-57
2022/02/04 20:43:21;;;;;;;7.85;2.22;;;5.00;84.20;;;;;;5090652;28;20051;-53
2022/02/04 20:45:48;;;;;;;14.55;3.25;;;5.00;84.40;;;;;;5092736;28;20499;-50
2022/02/04 20:48:15;;;;;;;15.65;2.72;;;4.90;84.70;;;;;;5092015;28;20048;-52
2022/02/04 20:50:41;;;;;;;13.18;3.00;;;4.90;84.90;;;;;;5092910;28;20074;-49
2022/02/04 20:53:08;;;;;;;10.00;2.70;;;4.90;85.40;;;;;;5092821;28;20051;-55
2022/02/04 20:55:38;;;;;;;10.52;2.53;;;4.90;85.80;;;;;;5092296;28;20072;-55
2022/02/04 20:58:06;;;;;;;9.43;2.60;;;4.90;86.10;;;;;;5092742;28;20042;-52
2022/02/04 21:00:33;;;;;;;15.07;2.85;;;4.90;86.40;;;;;;5092281;28;20036;-55
2022/02/04 21:02:59;;;;;;;13.88;2.75;;;4.90;86.70;;;;;;5092379;28;20036;-51
2022/02/04 21:05:39;;;;;;;15.85;3.10;;;4.90;86.90;;;;;;5092498;28;20071;-54
2022/02/04 21:16:06;;;;;;;7.45;2.53;;;4.90;87.80;;;;;;5092166;28;20063;-52
2022/02/04 21:18:33;;;;;;;16.10;3.67;;;4.80;88.60;;;;;;5091888;28;20032;-53
2022/02/04 21:20:59;;;;;;;13.02;3.30;;;4.90;88.10;;;;;;5092013;28;20041;-55
2022/02/04 21:23:26;;;;;;;17.83;4.60;;;4.90;88.10;;;;;;5092151;28;20040;-52
2022/02/04 21:25:55;;;;;;;10.13;2.72;;;4.90;88.20;;;;;;5091309;28;20040;-54
2022/02/04 21:28:25;;;;;;;13.73;3.25;;;4.90;88.40;;;;;;5092097;28;20051;-51
2022/02/04 21:30:51;;;;;;;14.00;3.63;;;4.90;88.30;;;;;;5091076;28;20040;-52
2022/02/04 21:33:40;;;;;;;17.08;5.18;;;4.90;88.30;;;;;;5091532;28;20059;-52
2022/02/04 21:38:53;;;;;;;15.35;3.88;;;4.90;88.60;;;;;;5092360;28;20056;-54
2022/02/04 21:41:19;;;;;;;14.02;2.72;;;4.90;88.70;;;;;;5093777;28;20507;-51
2022/02/04 21:43:51;;;;;;;17.75;3.40;;;4.90;88.70;;;;;;5094607;28;20052;-54
2022/02/04 21:46:18;;;;;;;10.70;2.80;;;4.90;88.70;;;;;;5094021;28;20459;-56
2022/02/04 21:48:50;;;;;;;14.80;2.70;;;4.90;88.90;;;;;;5095865;28;20040;-56
2022/02/04 21:51:17;;;;;;;14.40;2.90;;;4.80;88.90;;;;;;5094231;28;20047;-53
2022/02/04 21:53:43;;;;;;;13.77;2.53;;;4.80;89.30;;;;;;5095481;28;20098;-54
2022/02/04 21:56:12;;;;;;;14.88;2.55;;;4.80;89.40;;;;;;5094748;28;20048;-55
2022/02/04 21:58:39;;;;;;;13.63;2.80;;;4.80;89.60;;;;;;5093759;28;20044;-51
2022/02/04 22:01:05;;;;;;;8.98;2.10;;;4.80;90.00;;;;;;5095288;28;20059;-60
2022/02/04 22:03:32;;;;;;;8.13;2.47;;;4.80;90.00;;;;;;5095706;28;20040;-51
2022/02/04 22:06:00;;;;;;;9.10;2.17;;;4.70;90.00;;;;;;5095255;28;20047;-50
2022/02/04 22:08:38;;;;;;;10.43;2.40;;;4.70;90.00;;;;;;5093804;28;20093;-54
2022/02/04 22:11:24;;;;;;;13.57;2.58;;;4.70;90.00;;;;;;5095265;28;20040;-54
2022/02/04 22:13:58;;;;;;;10.02;2.40;;;4.70;90.00;;;;;;5093817;28;20122;-55
2022/02/04 22:16:47;;;;;;;13.38;2.70;;;4.70;90.00;;;;;;5094767;28;20040;-54
2022/02/04 22:22:12;;;;;;;11.27;2.70;;;4.70;90.10;;;;;;5094214;28;20097;-52
2022/02/04 22:24:39;;;;;;;9.70;2.47;;;4.60;90.20;;;;;;5095072;28;20113;-52
2022/02/04 22:27:07;;;;;;;12.88;2.33;;;4.60;90.20;;;;;;5092399;28;20078;-53
2022/02/04 22:29:39;;;;;;;10.48;2.83;;;4.60;90.40;;;;;;5075941;28;20487;-53
2022/02/04 22:32:15;;;;;;;11.60;2.60;;;4.60;90.40;;;;;;5094612;28;20048;-51
2022/02/04 22:35:51;;;;;;;11.50;2.70;;;4.60;90.40;;;;;;5092397;28;20048;-51
2022/02/04 22:48:16;;;;;;;12.23;2.38;;;4.50;90.70;;;;;;5088379;28;20089;-58
2022/02/04 22:50:37;;;;;;;12.02;2.40;;;4.40;91.00;;;;;;5092602;28;20052;-58
2022/02/04 22:53:29;;;;;;;8.93;2.63;;;4.50;90.70;;;;;;5094444;28;20043;-56
2022/02/04 22:56:13;;;;;;;12.60;2.33;;;4.40;90.80;;;;;;5094171;28;20044;-56
2022/02/04 22:58:47;;;;;;;14.13;3.22;;;4.40;90.80;;;;;;5094304;28;20547;-56
2022/02/04 23:01:14;;;;;;;10.38;3.28;;;4.40;90.90;;;;;;5094328;28;20039;-55
2022/02/04 23:03:43;;;;;;;13.43;2.35;;;4.40;91.00;;;;;;5094354;28;20384;-53
2022/02/04 23:06:16;;;;;;;8.55;2.42;;;4.40;91.00;;;;;;5094055;28;20067;-54
2022/02/04 23:08:46;;;;;;;10.25;2.08;;;4.40;91.30;;;;;;5093841;28;20044;-53
2022/02/04 23:11:12;;;;;;;10.57;2.20;;;4.40;91.00;;;;;;5094040;28;20056;-54
